Moose Pass, Alaska
Current Conditions -  °F | °C
As of 5:08 PM on Saturday 22 Nov 2014 (Local Time) from PAWD Reporting Station
Light Rain Light Rain  
Wind Chill: 32°   Ceiling: 3000
Heat Index: 36°   Visibility: 6mi
Dew Point: 34°   Wind: 5mph
Humidity: 93%   Direction: 360°N
Pressure: 29.13"   Gusts: NA
Location:  60.49°N, 149.38°W
Report Text: PAWD 230208Z AUTO 36004KT 6SM -RA BR OVC030 02/01 A2913 RMK AO2 P0000 T00220011 TSNO $
Loading
Personal Weather Stations






























Interactive Weather Map New forecast layout! Learn more

10-Day Weather Forecast

Advertisements
Track Severe Weather on mobile